createdAt,value
2022-12-05T00:01:50.262Z,2.34
2022-12-05T00:04:18.327Z,2.39
2022-12-05T00:06:46.040Z,2.37
2022-12-05T00:09:15.171Z,2.52
2022-12-05T00:11:46.049Z,2.49
2022-12-05T00:14:15.751Z,2.15
2022-12-05T00:16:44.720Z,2.21
2022-12-05T00:19:15.624Z,2.22
2022-12-05T00:21:44.052Z,2.23
2022-12-05T00:24:15.391Z,2.10
2022-12-05T00:26:43.826Z,1.73
2022-12-05T00:29:11.559Z,1.88
2022-12-05T00:31:40.917Z,2.11
2022-12-05T00:34:09.406Z,2.37
2022-12-05T00:36:37.670Z,2.45
2022-12-05T00:39:09.327Z,2.59
2022-12-05T00:41:37.679Z,2.78
2022-12-05T00:44:06.131Z,2.81
2022-12-05T00:46:35.409Z,2.86
2022-12-05T00:49:06.911Z,2.91
2022-12-05T00:51:36.720Z,2.92
2022-12-05T00:54:07.016Z,2.84
2022-12-05T00:56:35.688Z,2.88
2022-12-05T00:59:04.932Z,2.83
2022-12-05T01:01:34.912Z,2.62
2022-12-05T01:04:08.042Z,2.41
2022-12-05T01:06:35.676Z,2.25
2022-12-05T01:09:05.541Z,2.40
2022-12-05T01:11:39.282Z,2.64
2022-12-05T01:14:09.209Z,2.73
2022-12-05T01:16:38.878Z,2.73
2022-12-05T01:19:10.685Z,2.48
2022-12-05T01:21:38.883Z,2.46
2022-12-05T01:24:07.585Z,2.19
2022-12-05T01:26:35.219Z,2.03
2022-12-05T01:29:03.682Z,2.22
2022-12-05T01:31:33.718Z,2.27
2022-12-05T01:34:04.036Z,2.22
2022-12-05T01:36:33.420Z,1.90
2022-12-05T01:39:02.301Z,2.10
2022-12-05T01:41:32.750Z,1.93
2022-12-05T01:44:02.708Z,1.83
2022-12-05T01:46:32.151Z,1.51
2022-12-05T01:49:04.807Z,1.60
2022-12-05T01:51:35.300Z,1.84
2022-12-05T01:54:03.876Z,1.83
2022-12-05T01:56:33.728Z,1.92
2022-12-05T01:59:04.319Z,2.04
2022-12-05T02:01:32.360Z,2.15
2022-12-05T02:04:00.799Z,2.20
2022-12-05T02:06:29.693Z,1.50
2022-12-05T02:08:58.912Z,1.25
2022-12-05T02:11:30.242Z,1.36
2022-12-05T02:14:15.370Z,1.05
2022-12-05T02:16:54.099Z,1.20
2022-12-05T02:19:44.199Z,1.60
2022-12-05T02:22:30.112Z,1.40
2022-12-05T02:25:15.812Z,1.32
2022-12-05T02:28:04.651Z,1.35
2022-12-05T02:30:40.905Z,1.40
2022-12-05T02:33:19.286Z,1.66
2022-12-05T02:35:55.836Z,1.46
2022-12-05T02:38:30.984Z,1.59
2022-12-05T02:41:07.548Z,1.56
2022-12-05T02:43:42.042Z,1.79
2022-12-05T02:46:15.935Z,1.67
2022-12-05T02:48:47.576Z,1.90
2022-12-05T02:51:20.863Z,2.05
2022-12-05T02:53:51.611Z,2.16
2022-12-05T02:56:20.508Z,1.79
2022-12-05T02:58:53.622Z,1.79
2022-12-05T03:01:25.237Z,1.48
2022-12-05T03:03:53.047Z,1.71
2022-12-05T03:06:25.067Z,1.93
2022-12-05T03:08:57.000Z,1.95
2022-12-05T03:11:25.726Z,1.96
2022-12-05T03:13:57.601Z,2.00
2022-12-05T03:16:33.470Z,2.03
2022-12-05T03:19:06.384Z,2.30
2022-12-05T03:21:38.464Z,2.34
2022-12-05T03:24:08.892Z,2.35
2022-12-05T03:26:43.801Z,2.46
2022-12-05T03:29:23.789Z,2.38
2022-12-05T03:32:03.465Z,2.43
2022-12-05T03:34:43.125Z,2.46
2022-12-05T03:37:15.855Z,2.58
2022-12-05T03:39:48.733Z,2.54
2022-12-05T03:42:24.145Z,2.48
2022-12-05T03:44:55.559Z,2.41
2022-12-05T03:47:30.514Z,2.52
2022-12-05T03:50:02.392Z,2.33
2022-12-05T03:52:51.252Z,2.63
2022-12-05T03:55:26.836Z,2.64
2022-12-05T03:57:59.041Z,2.72
2022-12-05T04:00:29.167Z,2.77
2022-12-05T04:03:08.742Z,2.79
2022-12-05T04:05:43.027Z,2.80
2022-12-05T04:08:15.644Z,2.87
2022-12-05T04:10:50.158Z,2.71
2022-12-05T04:13:21.040Z,2.91
2022-12-05T04:16:11.973Z,2.98
2022-12-05T04:18:47.321Z,2.99
2022-12-05T04:21:33.673Z,3.02
2022-12-05T04:24:19.302Z,3.06
2022-12-05T04:26:54.767Z,3.10
2022-12-05T04:29:29.749Z,3.14
2022-12-05T04:32:04.472Z,3.11
2022-12-05T04:34:36.284Z,3.18
2022-12-05T04:37:08.829Z,3.15
2022-12-05T04:39:42.433Z,3.21
2022-12-05T04:42:15.364Z,3.29
2022-12-05T04:44:47.364Z,3.29
2022-12-05T04:47:18.112Z,3.34
2022-12-05T04:49:54.375Z,3.37
2022-12-05T04:52:23.200Z,3.43
2022-12-05T04:54:55.705Z,3.37
2022-12-05T04:57:29.387Z,3.32
2022-12-05T04:59:57.811Z,3.33
2022-12-05T05:02:33.347Z,3.28
2022-12-05T05:05:06.346Z,3.25
2022-12-05T05:07:52.353Z,3.25
2022-12-05T05:10:26.555Z,3.27
2022-12-05T05:12:55.319Z,3.23
2022-12-05T05:15:23.013Z,3.23
2022-12-05T05:17:51.302Z,3.25
2022-12-05T05:20:25.120Z,3.23
2022-12-05T05:22:56.813Z,3.22
2022-12-05T05:25:25.927Z,3.22
2022-12-05T05:27:55.785Z,3.21
2022-12-05T05:30:25.894Z,3.35
2022-12-05T05:32:54.411Z,3.46
2022-12-05T05:35:22.611Z,3.47
2022-12-05T05:37:50.525Z,3.45
2022-12-05T05:40:19.863Z,3.44
2022-12-05T05:42:50.723Z,3.45
2022-12-05T05:45:18.672Z,3.41
2022-12-05T05:47:48.891Z,3.47
2022-12-05T05:50:21.376Z,3.55
2022-12-05T05:52:50.124Z,3.61
2022-12-05T05:55:19.308Z,3.57
2022-12-05T05:57:47.873Z,3.58
2022-12-05T06:00:16.603Z,3.65
2022-12-05T06:02:44.383Z,3.70
2022-12-05T06:05:12.161Z,3.77
2022-12-05T06:07:39.968Z,3.77
2022-12-05T06:10:08.967Z,3.74
2022-12-05T06:12:37.977Z,3.71
2022-12-05T06:15:08.099Z,3.78
2022-12-05T06:17:35.773Z,3.72
2022-12-05T06:20:04.281Z,3.77
2022-12-05T06:22:31.919Z,3.63
2022-12-05T06:25:00.000Z,3.68
2022-12-05T06:27:30.504Z,3.80
2022-12-05T06:30:00.213Z,3.82
2022-12-05T06:32:29.402Z,3.83
2022-12-05T06:34:57.437Z,3.92
2022-12-05T06:37:25.076Z,3.86
2022-12-05T06:39:53.359Z,3.75
2022-12-05T06:42:22.200Z,3.74
2022-12-05T06:44:50.174Z,3.73
2022-12-05T06:47:19.139Z,3.67
2022-12-05T06:49:47.189Z,3.72
2022-12-05T06:52:14.893Z,3.77
2022-12-05T06:54:42.554Z,3.72
2022-12-05T06:57:10.626Z,3.67
2022-12-05T06:59:38.681Z,3.66
2022-12-05T07:02:08.388Z,3.62
2022-12-05T07:04:37.546Z,3.64
2022-12-05T07:07:05.784Z,3.54
2022-12-05T07:09:52.592Z,3.61
2022-12-05T07:12:20.609Z,3.65
2022-12-05T07:14:49.844Z,3.69
2022-12-05T07:17:18.461Z,3.62
2022-12-05T07:19:48.884Z,3.59
2022-12-05T07:22:16.820Z,3.69
2022-12-05T07:24:44.771Z,3.69
2022-12-05T07:27:12.763Z,3.64
2022-12-05T07:29:41.198Z,3.77
2022-12-05T07:32:09.884Z,3.77
2022-12-05T07:34:38.713Z,3.79
2022-12-05T07:37:08.111Z,3.78
2022-12-05T07:39:36.299Z,3.86
2022-12-05T07:42:03.953Z,3.87
2022-12-05T07:44:31.955Z,3.84
2022-12-05T07:46:59.632Z,3.90
2022-12-05T07:49:27.565Z,3.91
2022-12-05T07:51:55.832Z,3.89
2022-12-05T07:54:25.015Z,3.97
2022-12-05T07:56:53.372Z,4.03
2022-12-05T07:59:21.580Z,4.05
2022-12-05T08:01:50.094Z,4.20
2022-12-05T08:04:17.917Z,4.22
2022-12-05T08:06:46.199Z,4.29
2022-12-05T08:09:14.081Z,4.37
2022-12-05T08:11:46.968Z,4.44
2022-12-05T08:14:17.355Z,4.37
2022-12-05T08:16:45.542Z,4.42
2022-12-05T08:19:13.859Z,4.46
2022-12-05T08:21:42.167Z,4.48
2022-12-05T08:24:10.257Z,4.53
2022-12-05T08:26:39.312Z,4.63
2022-12-05T08:29:11.338Z,4.68
2022-12-05T08:31:42.233Z,4.63
2022-12-05T08:34:12.925Z,4.72
2022-12-05T08:36:41.860Z,4.76
2022-12-05T08:39:14.876Z,4.79
2022-12-05T08:41:43.161Z,5.01
2022-12-05T08:44:16.930Z,4.90
2022-12-05T08:46:46.718Z,5.13
2022-12-05T08:49:14.772Z,5.16
2022-12-05T08:51:43.567Z,5.23
2022-12-05T08:54:11.904Z,5.22
2022-12-05T08:56:39.588Z,5.28
2022-12-05T08:59:07.812Z,5.16
2022-12-05T09:01:39.367Z,5.14
2022-12-05T09:04:08.070Z,5.05
2022-12-05T09:06:37.023Z,5.16
2022-12-05T09:09:06.864Z,5.19
2022-12-05T09:11:37.262Z,5.19
2022-12-05T09:14:05.889Z,4.97
2022-12-05T09:16:38.357Z,4.92
2022-12-05T09:19:15.904Z,4.99
2022-12-05T09:21:44.336Z,4.65
2022-12-05T09:24:13.151Z,4.65
2022-12-05T09:26:42.211Z,4.63
2022-12-05T09:29:15.725Z,4.87
2022-12-05T09:31:44.768Z,5.07
2022-12-05T09:34:15.115Z,5.18
2022-12-05T09:36:44.090Z,5.23
2022-12-05T09:39:12.357Z,5.24
2022-12-05T09:42:08.242Z,5.25
2022-12-05T09:44:54.139Z,5.17
2022-12-05T09:47:32.560Z,5.34
2022-12-05T09:50:05.584Z,5.40
2022-12-05T09:52:39.873Z,5.52
2022-12-05T09:55:16.847Z,5.60
2022-12-05T09:57:49.977Z,5.68
2022-12-05T10:00:18.263Z,5.77
2022-12-05T10:02:54.780Z,5.85
2022-12-05T10:05:48.417Z,5.89
2022-12-05T10:08:22.767Z,5.94
2022-12-05T10:11:01.039Z,6.02
2022-12-05T10:13:49.929Z,6.02
2022-12-05T10:16:24.104Z,6.08
2022-12-05T10:18:56.773Z,6.08
2022-12-05T10:21:31.441Z,6.09
2022-12-05T10:24:02.272Z,6.13
2022-12-05T10:26:33.763Z,5.69
2022-12-05T10:29:10.360Z,5.86
2022-12-05T10:31:40.409Z,6.03
2022-12-05T10:34:16.406Z,6.12
2022-12-05T10:37:07.086Z,6.06
2022-12-05T10:39:34.844Z,6.13
2022-12-05T10:42:02.961Z,6.13
2022-12-05T10:44:31.117Z,6.02
2022-12-05T10:46:59.994Z,6.13
2022-12-05T10:49:29.019Z,6.16
2022-12-05T10:51:58.034Z,6.11
2022-12-05T10:54:29.908Z,6.19
2022-12-05T10:56:58.603Z,6.18
2022-12-05T10:59:39.096Z,6.04
2022-12-05T11:02:22.355Z,6.15
2022-12-05T11:04:50.568Z,6.11
2022-12-05T11:07:30.262Z,6.06
2022-12-05T11:09:57.980Z,5.58
2022-12-05T11:12:30.425Z,5.35
2022-12-05T11:15:01.893Z,5.59
2022-12-05T11:17:34.017Z,5.70
2022-12-05T11:20:02.153Z,5.46
2022-12-05T11:22:37.110Z,5.69
2022-12-05T11:25:25.109Z,5.42
2022-12-05T11:27:55.963Z,5.53
2022-12-05T11:30:29.762Z,5.41
2022-12-05T11:33:13.094Z,5.65
2022-12-05T11:35:41.726Z,5.32
2022-12-05T11:38:13.261Z,5.51
2022-12-05T11:40:48.931Z,5.36
2022-12-05T11:43:47.047Z,5.02
2022-12-05T11:46:26.869Z,5.30
2022-12-05T11:49:20.343Z,5.46
2022-12-05T11:51:55.917Z,5.49
2022-12-05T11:55:07.426Z,5.41
2022-12-05T11:57:52.808Z,5.48
2022-12-05T12:00:25.909Z,5.38
2022-12-05T12:03:17.226Z,5.61
2022-12-05T12:05:56.718Z,5.71
2022-12-05T12:08:27.582Z,5.63
2022-12-05T12:11:09.096Z,5.58
2022-12-05T12:13:52.644Z,5.33
2022-12-05T12:16:29.378Z,5.32
2022-12-05T12:19:12.202Z,5.03
2022-12-05T12:21:52.380Z,4.92
2022-12-05T12:24:31.662Z,4.96
2022-12-05T12:27:09.326Z,5.19
2022-12-05T12:29:52.169Z,5.31
2022-12-05T12:32:33.429Z,5.40
2022-12-05T12:35:25.129Z,5.07
2022-12-05T12:38:09.087Z,5.05
2022-12-05T12:40:47.319Z,4.95
2022-12-05T12:43:53.138Z,4.92
2022-12-05T12:46:34.499Z,4.98
2022-12-05T12:49:35.790Z,5.04
2022-12-05T12:52:05.873Z,5.02
2022-12-05T12:55:05.533Z,4.97
2022-12-05T12:57:49.349Z,5.01
2022-12-05T13:00:27.983Z,4.94
2022-12-05T13:03:00.358Z,4.83
2022-12-05T13:05:34.068Z,4.99
2022-12-05T13:08:06.210Z,5.47
2022-12-05T13:10:36.801Z,5.54
2022-12-05T13:13:07.017Z,5.60
2022-12-05T13:15:41.273Z,5.66
2022-12-05T13:18:15.999Z,5.70
2022-12-05T13:20:45.030Z,5.72
2022-12-05T13:23:15.905Z,5.77
2022-12-05T13:25:45.912Z,5.71
2022-12-05T13:28:26.771Z,5.51
2022-12-05T13:31:02.056Z,5.52
2022-12-05T13:33:33.753Z,5.62
2022-12-05T13:36:26.401Z,5.77
2022-12-05T13:39:16.932Z,5.74
2022-12-05T13:42:04.079Z,5.73
2022-12-05T13:44:39.672Z,5.66
2022-12-05T13:47:24.252Z,5.67
2022-12-05T13:49:55.225Z,5.69
2022-12-05T13:52:25.619Z,5.65
2022-12-05T13:54:59.472Z,5.69
2022-12-05T13:57:46.510Z,5.74
2022-12-05T14:00:27.520Z,5.84
2022-12-05T14:02:59.111Z,5.89
2022-12-05T14:05:38.395Z,5.97
2022-12-05T14:08:44.836Z,6.04
2022-12-05T14:11:13.188Z,6.10
2022-12-05T14:13:43.489Z,6.13
2022-12-05T14:16:48.139Z,6.11
2022-12-05T14:19:44.431Z,6.03
2022-12-05T14:22:27.373Z,5.99
2022-12-05T14:25:01.951Z,5.92
2022-12-05T14:27:43.937Z,5.87
2022-12-05T14:30:23.741Z,5.88
2022-12-05T14:32:53.871Z,5.85
2022-12-05T14:35:30.104Z,5.85
2022-12-05T14:38:02.274Z,5.85
2022-12-05T14:40:33.884Z,5.81
2022-12-05T14:43:04.271Z,5.79
2022-12-05T14:45:36.386Z,5.79
2022-12-05T14:48:06.567Z,5.75
2022-12-05T14:50:41.297Z,5.72
2022-12-05T14:53:20.228Z,5.79
2022-12-05T14:55:50.690Z,5.76
2022-12-05T14:58:22.985Z,5.68
2022-12-05T15:00:57.793Z,5.58
2022-12-05T15:03:31.747Z,5.42
2022-12-05T15:06:05.306Z,5.45
2022-12-05T15:08:44.401Z,5.16
2022-12-05T15:11:28.023Z,5.26
2022-12-05T15:14:01.410Z,5.22
2022-12-05T15:16:31.574Z,5.09
2022-12-05T15:19:04.736Z,4.94
2022-12-05T15:21:39.235Z,4.86
2022-12-05T15:24:14.401Z,4.89
2022-12-05T15:26:49.114Z,4.97
2022-12-05T15:29:25.256Z,4.99
2022-12-05T15:31:56.067Z,5.13
2022-12-05T15:34:29.935Z,5.27
2022-12-05T15:37:05.925Z,5.20
2022-12-05T15:39:53.354Z,5.22
2022-12-05T15:42:30.271Z,5.21
2022-12-05T15:45:16.852Z,5.17
2022-12-05T15:47:46.968Z,5.11
2022-12-05T15:50:15.430Z,5.15
2022-12-05T15:52:49.096Z,5.27
2022-12-05T15:55:22.440Z,5.32
2022-12-05T15:57:55.967Z,5.21
2022-12-05T16:00:26.008Z,5.19
2022-12-05T16:02:58.752Z,5.25
2022-12-05T16:05:32.327Z,5.28
2022-12-05T16:08:04.472Z,5.30
2022-12-05T16:10:32.236Z,5.27
2022-12-05T16:13:06.126Z,5.29
2022-12-05T16:15:35.100Z,5.30
2022-12-05T16:18:06.943Z,5.25
2022-12-05T16:20:36.904Z,5.23
2022-12-05T16:23:22.764Z,5.22
2022-12-05T16:25:52.059Z,5.16
2022-12-05T16:28:21.284Z,5.07
2022-12-05T16:30:57.935Z,5.11
2022-12-05T16:33:28.423Z,5.11
2022-12-05T16:35:56.275Z,5.04
2022-12-05T16:38:29.600Z,5.03
2022-12-05T16:40:59.585Z,5.00
2022-12-05T16:43:41.480Z,5.00
2022-12-05T16:46:44.871Z,4.92
2022-12-05T16:49:44.338Z,4.90
2022-12-05T16:52:15.579Z,4.85
2022-12-05T16:54:48.175Z,4.87
2022-12-05T16:57:17.416Z,4.88
2022-12-05T16:59:48.271Z,4.82
2022-12-05T17:02:20.534Z,4.71
2022-12-05T17:04:48.250Z,4.63
2022-12-05T17:07:16.064Z,4.59
2022-12-05T17:09:45.062Z,4.62
2022-12-05T17:12:22.166Z,4.60
2022-12-05T17:14:50.571Z,4.57
2022-12-05T17:17:19.011Z,4.52
2022-12-05T17:19:47.188Z,4.51
2022-12-05T17:22:16.380Z,4.47
2022-12-05T17:24:45.668Z,4.45
2022-12-05T17:27:13.939Z,4.50
2022-12-05T17:29:41.677Z,4.47
2022-12-05T17:32:11.200Z,4.43
2022-12-05T17:34:39.223Z,4.47
2022-12-05T17:37:06.939Z,4.48
2022-12-05T17:39:35.294Z,4.45
2022-12-05T17:42:06.365Z,4.36
2022-12-05T17:44:34.663Z,4.26
2022-12-05T17:47:07.692Z,4.26
2022-12-05T17:49:36.042Z,4.21
2022-12-05T17:52:21.866Z,4.26
2022-12-05T17:54:50.594Z,4.28
2022-12-05T17:57:19.620Z,4.23
2022-12-05T17:59:47.557Z,4.16
2022-12-05T18:02:15.486Z,4.13
2022-12-05T18:04:43.432Z,4.09
2022-12-05T18:07:11.075Z,4.04
2022-12-05T18:09:39.104Z,4.03
2022-12-05T18:12:06.816Z,4.03
2022-12-05T18:14:36.979Z,3.99
2022-12-05T18:17:04.727Z,3.98
2022-12-05T18:19:33.213Z,3.99
2022-12-05T18:22:00.891Z,4.00
2022-12-05T18:24:29.218Z,4.01
2022-12-05T18:26:57.807Z,3.93
2022-12-05T18:29:27.178Z,3.98
2022-12-05T18:31:56.249Z,4.00
2022-12-05T18:34:24.335Z,4.02
2022-12-05T18:36:52.439Z,4.04
2022-12-05T18:39:21.104Z,3.94
2022-12-05T18:41:48.986Z,3.99
2022-12-05T18:44:17.473Z,4.04
2022-12-05T18:46:45.113Z,4.03
2022-12-05T18:49:15.083Z,3.97
2022-12-05T18:51:45.214Z,4.00
2022-12-05T18:54:13.223Z,3.94
2022-12-05T18:56:40.946Z,3.89
2022-12-05T18:59:12.721Z,3.86
2022-12-05T19:01:42.294Z,3.80
2022-12-05T19:04:12.364Z,3.72
2022-12-05T19:06:44.053Z,3.72
2022-12-05T19:09:15.259Z,3.76
2022-12-05T19:11:47.341Z,3.77
2022-12-05T19:14:18.709Z,3.69
2022-12-05T19:16:47.390Z,3.77
2022-12-05T19:19:15.939Z,3.77
2022-12-05T19:21:45.912Z,3.79
2022-12-05T19:24:16.384Z,3.81
2022-12-05T19:26:44.851Z,3.84
2022-12-05T19:29:13.501Z,3.78
2022-12-05T19:31:41.597Z,3.81
2022-12-05T19:34:09.661Z,3.86
2022-12-05T19:36:39.487Z,3.85
2022-12-05T19:39:10.935Z,3.85
2022-12-05T19:41:38.961Z,3.78
2022-12-05T19:44:06.975Z,3.76
2022-12-05T19:46:35.811Z,3.75
2022-12-05T19:49:05.467Z,3.74
2022-12-05T19:51:33.893Z,3.78
2022-12-05T19:54:02.954Z,3.86
2022-12-05T19:56:33.877Z,3.82
2022-12-05T19:59:01.688Z,3.80
2022-12-05T20:01:31.740Z,3.84
2022-12-05T20:04:00.834Z,3.88
2022-12-05T20:06:32.472Z,3.80
2022-12-05T20:09:00.963Z,3.54
2022-12-05T20:11:30.152Z,3.51
2022-12-05T20:14:00.587Z,3.43
2022-12-05T20:16:29.591Z,3.29
2022-12-05T20:18:59.648Z,3.33
2022-12-05T20:21:29.920Z,3.44
2022-12-05T20:23:59.460Z,3.47
2022-12-05T20:26:30.175Z,3.43
2022-12-05T20:29:00.446Z,3.42
2022-12-05T20:31:30.048Z,3.34
2022-12-05T20:33:57.851Z,3.33
2022-12-05T20:36:28.061Z,3.44
2022-12-05T20:38:57.028Z,3.47
2022-12-05T20:41:25.799Z,3.43
2022-12-05T20:43:55.700Z,3.42
2022-12-05T20:46:25.777Z,3.41
2022-12-05T20:48:54.148Z,3.40
2022-12-05T20:51:23.324Z,3.36
2022-12-05T20:53:51.839Z,3.35
2022-12-05T20:56:21.512Z,3.33
2022-12-05T20:58:50.888Z,3.32
2022-12-05T21:01:20.325Z,3.35
2022-12-05T21:03:50.832Z,3.36
2022-12-05T21:06:20.388Z,3.38
2022-12-05T21:08:48.061Z,3.37
2022-12-05T21:11:16.307Z,3.34
2022-12-05T21:13:44.067Z,3.30
2022-12-05T21:16:16.644Z,3.33
2022-12-05T21:18:44.838Z,3.26
2022-12-05T21:21:16.571Z,3.21
2022-12-05T21:23:45.619Z,3.16
2022-12-05T21:26:16.251Z,3.14
2022-12-05T21:28:45.960Z,3.11
2022-12-05T21:31:15.744Z,3.08
2022-12-05T21:33:47.265Z,3.05
2022-12-05T21:36:16.492Z,3.06
2022-12-05T21:38:44.216Z,2.95
2022-12-05T21:41:12.720Z,2.84
2022-12-05T21:43:40.582Z,2.81
2022-12-05T21:46:08.519Z,2.75
2022-12-05T21:48:36.524Z,2.76
2022-12-05T21:51:06.659Z,2.73
2022-12-05T21:53:35.736Z,2.68
2022-12-05T21:56:05.628Z,2.72
2022-12-05T21:58:38.044Z,2.78
2022-12-05T22:01:08.514Z,2.80
2022-12-05T22:03:36.378Z,2.78
2022-12-05T22:06:06.846Z,2.83
2022-12-05T22:08:36.696Z,2.77
2022-12-05T22:11:06.064Z,2.82
2022-12-05T22:13:34.207Z,2.82
2022-12-05T22:16:02.715Z,2.81
2022-12-05T22:18:31.258Z,2.86
2022-12-05T22:20:59.738Z,2.91
2022-12-05T22:23:27.815Z,2.96
2022-12-05T22:26:02.042Z,2.99
2022-12-05T22:28:30.527Z,2.89
2022-12-05T22:31:01.926Z,2.86
2022-12-05T22:33:31.813Z,2.88
2022-12-05T22:36:01.046Z,2.93
2022-12-05T22:38:30.559Z,3.00
2022-12-05T22:41:01.588Z,3.10
2022-12-05T22:43:31.152Z,3.04
2022-12-05T22:45:58.779Z,3.08
2022-12-05T22:48:27.549Z,3.11
2022-12-05T22:50:55.457Z,3.20
2022-12-05T22:53:24.777Z,2.61
2022-12-05T22:55:52.716Z,2.57
2022-12-05T22:58:22.144Z,2.56
2022-12-05T23:00:49.803Z,2.59
2022-12-05T23:03:17.639Z,2.64
2022-12-05T23:05:45.683Z,2.72
2022-12-05T23:08:13.988Z,2.79
2022-12-05T23:10:41.816Z,2.84
2022-12-05T23:13:09.981Z,2.84
2022-12-05T23:15:39.636Z,3.20
2022-12-05T23:18:08.557Z,2.87
2022-12-05T23:20:36.383Z,2.90
2022-12-05T23:23:04.517Z,2.94
2022-12-05T23:25:32.300Z,2.80
2022-12-05T23:28:00.858Z,2.77
2022-12-05T23:30:29.003Z,2.68
2022-12-05T23:32:59.390Z,2.65
2022-12-05T23:35:27.177Z,2.66
2022-12-05T23:37:54.977Z,2.61
2022-12-05T23:40:22.762Z,2.67
2022-12-05T23:42:51.392Z,2.61
2022-12-05T23:45:19.301Z,2.65
2022-12-05T23:47:47.740Z,2.74
2022-12-05T23:50:17.108Z,2.70
2022-12-05T23:52:45.233Z,2.81
2022-12-05T23:55:12.990Z,2.77
2022-12-05T23:57:41.052Z,2.74
